createdAt,value
2017-07-07T00:02:03.374Z,48.2
2017-07-07T00:07:03.420Z,48.2
2017-07-07T00:12:03.161Z,48.2
2017-07-07T00:17:03.943Z,48.1
2017-07-07T00:22:03.498Z,48.0
2017-07-07T00:27:03.165Z,47.9
2017-07-07T00:32:03.737Z,48.1
2017-07-07T00:37:03.594Z,48.2
2017-07-07T00:42:03.293Z,48.2
2017-07-07T00:47:03.338Z,47.9
2017-07-07T00:52:03.234Z,47.9
2017-07-07T00:57:03.790Z,47.8
2017-07-07T01:02:03.723Z,48.1
2017-07-07T01:07:03.426Z,48.2
2017-07-07T01:12:03.319Z,48.2
2017-07-07T01:17:03.975Z,48.1
2017-07-07T01:22:03.615Z,48.1
2017-07-07T01:27:03.579Z,48.0
2017-07-07T01:32:03.440Z,47.9
2017-07-07T01:37:03.982Z,48.1
2017-07-07T01:42:03.695Z,48.1
2017-07-07T01:47:03.273Z,48.2
2017-07-07T01:52:03.253Z,48.2
2017-07-07T01:57:03.936Z,48.2
2017-07-07T02:02:03.619Z,48.2
2017-07-07T02:07:03.654Z,48.2
2017-07-07T02:12:03.322Z,48.2
2017-07-07T02:17:03.546Z,48.3
2017-07-07T02:22:03.394Z,48.4
2017-07-07T02:27:03.163Z,48.4
2017-07-07T02:32:03.847Z,48.2
2017-07-07T02:37:03.878Z,48.4
2017-07-07T02:42:03.282Z,48.5
2017-07-07T02:47:04.485Z,48.4
2017-07-07T02:52:03.887Z,48.6
2017-07-07T02:57:03.290Z,48.5
2017-07-07T03:02:16.852Z,48.4
2017-07-07T03:07:03.241Z,48.5
2017-07-07T03:12:03.844Z,48.5
2017-07-07T03:17:38.285Z,48.4
2017-07-07T03:22:03.842Z,48.4
2017-07-07T03:27:03.517Z,48.5
2017-07-07T03:32:24.597Z,48.5
2017-07-07T03:37:03.411Z,48.5
2017-07-07T03:42:03.867Z,48.6
2017-07-07T03:47:28.408Z,48.5
2017-07-07T03:52:03.967Z,48.5
2017-07-07T03:57:03.394Z,48.4
2017-07-07T04:02:27.990Z,48.5
2017-07-07T04:07:03.747Z,48.5
2017-07-07T04:12:03.331Z,48.5
2017-07-07T04:17:28.716Z,48.4
2017-07-07T04:22:03.138Z,48.3
2017-07-07T04:27:03.360Z,48.1
2017-07-07T04:32:28.504Z,48.1
2017-07-07T04:37:03.123Z,48.1
2017-07-07T04:42:03.494Z,48.1
2017-07-07T04:47:28.748Z,48.1
2017-07-07T04:52:03.242Z,48.1
2017-07-07T04:57:03.626Z,48.2
2017-07-07T05:02:31.399Z,48.2
2017-07-07T05:07:03.460Z,48.1
2017-07-07T05:12:03.902Z,48.1
2017-07-07T05:17:28.945Z,48.1
2017-07-07T05:22:03.829Z,48.2
2017-07-07T05:27:03.254Z,48.0
2017-07-07T05:32:23.947Z,47.9
2017-07-07T05:37:03.987Z,47.8
2017-07-07T05:42:03.331Z,47.9
2017-07-07T05:47:24.061Z,47.8
2017-07-07T05:52:03.656Z,47.8
2017-07-07T05:57:03.061Z,47.8
2017-07-07T06:02:23.756Z,47.8
2017-07-07T06:07:03.878Z,47.9
2017-07-07T06:12:03.635Z,47.7
2017-07-07T06:17:31.661Z,47.6
2017-07-07T06:22:03.537Z,47.6
2017-07-07T06:27:03.871Z,47.6
2017-07-07T06:32:28.600Z,47.6
2017-07-07T06:37:03.114Z,47.5
2017-07-07T06:42:03.536Z,47.5
2017-07-07T06:47:24.583Z,47.8
2017-07-07T06:52:03.860Z,47.8
2017-07-07T06:57:03.120Z,47.6
2017-07-07T07:02:28.094Z,47.6
2017-07-07T07:07:03.687Z,47.8
2017-07-07T07:12:03.317Z,47.4
2017-07-07T07:17:29.084Z,47.3
2017-07-07T07:22:03.272Z,47.6
2017-07-07T07:27:03.684Z,48.1
2017-07-07T07:32:26.854Z,48.4
2017-07-07T07:37:03.248Z,48.4
2017-07-07T07:42:03.618Z,48.2
2017-07-07T07:47:25.416Z,47.8
2017-07-07T07:52:03.647Z,48.1
2017-07-07T07:57:03.016Z,48.1
2017-07-07T08:02:23.834Z,47.8
2017-07-07T08:07:03.328Z,47.5
2017-07-07T08:12:03.764Z,47.4
2017-07-07T08:17:28.210Z,47.5
2017-07-07T08:22:03.868Z,47.9
2017-07-07T08:27:03.246Z,47.9
2017-07-07T08:32:32.126Z,48.3
2017-07-07T08:37:03.358Z,48.3
2017-07-07T08:42:03.753Z,48.7
2017-07-07T08:47:23.513Z,48.7
2017-07-07T08:52:03.424Z,48.7
2017-07-07T08:57:03.770Z,48.6
2017-07-07T09:02:25.809Z,48.4
2017-07-07T09:07:03.710Z,48.2
2017-07-07T09:12:03.181Z,48.1
2017-07-07T09:17:28.635Z,47.9
2017-07-07T09:22:03.533Z,47.9
2017-07-07T09:27:03.796Z,48.6
2017-07-07T09:32:27.598Z,49.3
2017-07-07T09:37:03.470Z,49.3
2017-07-07T09:42:03.811Z,49.5
2017-07-07T09:47:28.586Z,49.5
2017-07-07T09:52:03.809Z,49.4
2017-07-07T09:57:03.260Z,49.4
2017-07-07T10:02:23.761Z,49.5
2017-07-07T10:07:03.725Z,48.9
2017-07-07T10:12:03.312Z,48.9
2017-07-07T10:17:22.546Z,49.1
2017-07-07T10:22:03.921Z,49.1
2017-07-07T10:27:03.249Z,49.1
2017-07-07T10:32:30.223Z,50.0
2017-07-07T10:37:03.519Z,49.7
2017-07-07T10:42:03.834Z,50.1
2017-07-07T10:47:30.697Z,50.1
2017-07-07T10:52:03.183Z,49.2
2017-07-07T10:57:03.623Z,49.4
2017-07-07T11:02:28.544Z,49.0
2017-07-07T11:07:03.760Z,49.0
2017-07-07T11:12:03.286Z,48.2
2017-07-07T11:17:29.142Z,48.2
2017-07-07T11:22:03.516Z,48.5
2017-07-07T11:27:03.536Z,48.0
2017-07-07T11:32:24.244Z,48.1
2017-07-07T11:37:03.331Z,48.1
2017-07-07T11:42:03.693Z,47.8
2017-07-07T11:47:33.310Z,48.4
2017-07-07T11:52:03.902Z,48.4
2017-07-07T11:57:03.303Z,49.0
2017-07-07T12:02:28.680Z,48.9
2017-07-07T12:07:03.345Z,50.0
2017-07-07T12:12:03.820Z,49.9
2017-07-07T12:17:26.760Z,49.9
2017-07-07T12:22:03.616Z,49.5
2017-07-07T12:27:03.538Z,52.0
2017-07-07T12:32:25.847Z,52.0
2017-07-07T12:37:03.601Z,49.4
2017-07-07T12:42:03.122Z,49.5
2017-07-07T12:47:23.684Z,49.5
2017-07-07T12:52:03.904Z,49.7
2017-07-07T12:57:03.554Z,49.4
2017-07-07T13:02:29.177Z,49.7
2017-07-07T13:07:03.663Z,49.7
2017-07-07T13:12:03.230Z,49.6
2017-07-07T13:17:27.488Z,49.7
2017-07-07T13:22:03.507Z,48.9
2017-07-07T13:27:03.824Z,49.3
2017-07-07T13:32:28.508Z,49.4
2017-07-07T13:37:03.301Z,49.4
2017-07-07T13:42:03.658Z,49.1
2017-07-07T13:47:23.525Z,48.6
2017-07-07T13:52:03.051Z,48.8
2017-07-07T13:57:03.515Z,48.6
2017-07-07T14:02:26.940Z,48.8
2017-07-07T14:07:03.890Z,49.4
2017-07-07T14:12:03.557Z,48.6
2017-07-07T14:17:25.754Z,48.6
2017-07-07T14:22:03.293Z,48.6
2017-07-07T14:27:03.771Z,47.4
2017-07-07T14:32:23.637Z,47.3
2017-07-07T14:37:03.714Z,46.9
2017-07-07T14:42:02.994Z,46.9
2017-07-07T14:47:28.426Z,46.5
2017-07-07T14:52:03.252Z,45.6
2017-07-07T14:57:03.689Z,45.2
2017-07-07T15:02:27.684Z,43.0
2017-07-07T15:07:03.507Z,40.9
2017-07-07T15:12:03.857Z,39.2
2017-07-07T15:17:22.015Z,38.5
2017-07-07T15:22:03.827Z,36.6
2017-07-07T15:27:03.151Z,35.7
2017-07-07T15:32:23.938Z,35.7
2017-07-07T15:37:03.382Z,34.2
2017-07-07T15:42:03.683Z,34.5
2017-07-07T15:47:23.024Z,34.5
2017-07-07T15:52:03.361Z,35.3
2017-07-07T15:57:03.766Z,35.3
2017-07-07T16:02:21.130Z,37.4
2017-07-07T16:07:03.619Z,34.2
2017-07-07T16:12:03.207Z,34.2
2017-07-07T16:17:20.952Z,33.6
2017-07-07T16:22:03.421Z,33.6
2017-07-07T16:27:03.792Z,33.7
2017-07-07T16:32:20.421Z,35.4
2017-07-07T16:37:03.082Z,35.6
2017-07-07T16:42:03.410Z,33.7
2017-07-07T16:47:20.039Z,34.6
2017-07-07T16:52:03.350Z,34.6
2017-07-07T16:57:03.643Z,35.5
2017-07-07T17:02:22.621Z,36.8
2017-07-07T17:07:02.988Z,36.8
2017-07-07T17:12:03.284Z,40.4
2017-07-07T17:17:22.288Z,42.0
2017-07-07T17:22:04.012Z,43.3
2017-07-07T17:27:03.310Z,43.2
2017-07-07T17:32:24.075Z,39.7
2017-07-07T17:37:03.774Z,39.7
2017-07-07T17:42:03.050Z,42.4
2017-07-07T17:47:24.037Z,44.3
2017-07-07T17:52:03.618Z,45.2
2017-07-07T17:57:03.906Z,45.8
2017-07-07T18:02:23.454Z,45.9
2017-07-07T18:07:03.678Z,45.9
2017-07-07T18:12:03.235Z,45.7
2017-07-07T18:17:29.337Z,45.3
2017-07-07T18:22:03.146Z,45.3
2017-07-07T18:27:03.538Z,45.3
2017-07-07T18:32:28.407Z,44.9
2017-07-07T18:37:03.254Z,44.9
2017-07-07T18:42:03.136Z,45.8
2017-07-07T18:47:32.148Z,46.2
2017-07-07T18:52:03.059Z,46.4
2017-07-07T18:57:03.436Z,45.8
2017-07-07T19:02:28.663Z,45.6
2017-07-07T19:07:03.439Z,45.7
2017-07-07T19:12:03.828Z,45.6
2017-07-07T19:17:28.339Z,45.8
2017-07-07T19:22:03.470Z,45.8
2017-07-07T19:27:03.791Z,46.0
2017-07-07T19:32:24.653Z,46.1
2017-07-07T19:37:03.182Z,46.2
2017-07-07T19:42:03.293Z,46.1
2017-07-07T19:47:23.984Z,46.3
2017-07-07T19:52:03.044Z,46.3
2017-07-07T19:57:03.320Z,46.3
2017-07-07T20:02:21.356Z,46.4
2017-07-07T20:07:03.225Z,46.2
2017-07-07T20:12:03.580Z,46.2
2017-07-07T20:17:08.164Z,46.3
2017-07-07T20:22:03.453Z,46.2
2017-07-07T20:27:03.735Z,46.3
2017-07-07T20:32:07.904Z,46.4
2017-07-07T20:37:03.410Z,46.4
2017-07-07T20:42:03.944Z,46.5
2017-07-07T20:47:03.335Z,46.5
2017-07-07T20:52:03.682Z,46.5
2017-07-07T20:57:03.851Z,46.5
2017-07-07T21:02:03.390Z,46.4
2017-07-07T21:07:03.686Z,46.3
2017-07-07T21:12:03.148Z,46.5
2017-07-07T21:17:03.715Z,46.4
2017-07-07T21:22:03.746Z,46.4
2017-07-07T21:27:03.128Z,46.4
2017-07-07T21:32:03.406Z,46.6
2017-07-07T21:37:03.639Z,46.7
2017-07-07T21:42:03.889Z,46.7
2017-07-07T21:47:03.668Z,46.7
2017-07-07T21:52:03.502Z,46.7
2017-07-07T21:57:03.813Z,46.6
2017-07-07T22:02:03.940Z,46.8
2017-07-07T22:07:03.216Z,46.8
2017-07-07T22:12:03.494Z,46.7
2017-07-07T22:22:03.865Z,46.7
2017-07-07T22:27:03.271Z,47.1
2017-07-07T22:32:03.841Z,47.1
2017-07-07T22:37:03.701Z,47.1
2017-07-07T22:42:03.253Z,47.3
2017-07-07T22:47:03.796Z,47.4
2017-07-07T22:52:03.664Z,47.3
2017-07-07T22:57:03.226Z,47.3
2017-07-07T23:02:03.798Z,47.2
2017-07-07T23:07:03.288Z,47.4
2017-07-07T23:12:03.978Z,47.4
2017-07-07T23:17:03.947Z,47.5
2017-07-07T23:22:03.055Z,47.5
2017-07-07T23:27:03.710Z,47.5
2017-07-07T23:32:03.566Z,47.5
2017-07-07T23:37:03.074Z,47.4
2017-07-07T23:42:03.732Z,47.5
2017-07-07T23:47:03.365Z,47.5
2017-07-07T23:52:03.494Z,47.5
2017-07-07T23:57:03.290Z,47.6
